Time;durP1;ratioP1;P1;durP2;ratioP2;P2;SDS_P1;SDS_P2;PMS_P1;PMS_P2;Temp;Humidity;BMP_temperature;BMP_pressure;BME280_temperature;BME280_humidity;BME280_pressure;Samples;Min_cycle;Max_cycle;Signal;HPM_P1;HPM_P2
2022/10/07 00:00:55;;;;;;;29.35;21.45;;;;;;;12.88;79.64;98626.12;1721488;83;25873;-88
2022/10/07 00:03:25;;;;;;;27.55;18.40;;;;;;;12.86;79.70;98630.89;1721162;83;25890;-88
2022/10/07 00:06:04;;;;;;;36.30;22.30;;;;;;;12.87;79.76;98635.28;1721366;83;26000;-87
2022/10/07 00:08:32;;;;;;;30.80;20.23;;;;;;;12.86;79.78;98632.25;1721201;83;25837;-87
2022/10/07 00:11:19;;;;;;;26.77;19.40;;;;;;;12.78;79.77;98622.92;1694861;83;25839;-88
2022/10/07 00:13:51;;;;;;;26.37;17.12;;;;;;;12.71;79.86;98626.07;1721542;83;25935;-88
2022/10/07 00:16:25;;;;;;;22.45;17.00;;;;;;;12.63;79.91;98623.83;1721567;83;27443;-87
2022/10/07 00:18:57;;;;;;;19.12;15.30;;;;;;;12.65;79.93;98624.16;1721536;83;25808;-88
2022/10/07 00:21:26;;;;;;;19.77;14.70;;;;;;;12.66;79.76;98624.48;1721681;83;25783;-87
2022/10/07 00:23:53;;;;;;;22.17;15.43;;;;;;;12.63;79.68;98623.83;1721516;83;25695;-88
2022/10/07 00:26:24;;;;;;;24.70;16.82;;;;;;;12.63;79.63;98618.93;1721620;83;25643;-88
2022/10/07 00:28:51;;;;;;;20.92;14.55;;;;;;;12.61;79.49;98624.54;1721700;83;27405;-87
2022/10/07 00:31:25;;;;;;;25.17;15.32;;;;;;;12.58;79.47;98620.02;1721494;83;25750;-87
2022/10/07 00:33:54;;;;;;;17.82;12.82;;;;;;;12.57;79.48;98619.17;1720792;83;26365;-88
2022/10/07 00:36:28;;;;;;;21.80;13.03;;;;;;;12.55;79.48;98615.02;1721254;83;25757;-87
2022/10/07 00:39:02;;;;;;;21.17;13.22;;;;;;;12.53;79.49;98617.91;1721261;83;25938;-87
2022/10/07 00:41:36;;;;;;;20.65;13.70;;;;;;;12.52;79.47;98618.94;1721488;83;28193;-87
2022/10/07 00:44:34;;;;;;;26.85;16.55;;;;;;;12.44;79.43;98618.22;1721312;83;25714;-87
2022/10/07 00:47:15;;;;;;;26.82;18.48;;;;;;;12.35;79.52;98616.16;1721431;83;26027;-87
2022/10/07 00:49:50;;;;;;;24.30;17.20;;;;;;;12.30;79.79;98607.80;1721110;83;26508;-87
2022/10/07 00:52:19;;;;;;;19.42;12.95;;;;;;;12.33;79.89;98612.80;1720144;83;25668;-86
2022/10/07 00:54:51;;;;;;;17.52;12.75;;;;;;;12.34;79.78;98610.42;1721603;83;27399;-87
2022/10/07 00:57:17;;;;;;;16.40;12.15;;;;;;;12.33;79.67;98602.48;1721280;83;25295;-87
2022/10/07 00:59:44;;;;;;;19.95;12.40;;;;;;;12.29;79.53;98598.52;1721421;83;25936;-87
2022/10/07 01:02:11;;;;;;;15.80;11.18;;;;;;;12.25;79.50;98599.41;1721394;83;25802;-86
2022/10/07 01:04:38;;;;;;;15.13;11.43;;;;;;;12.22;79.34;98595.20;1721445;83;25698;-87
2022/10/07 01:07:04;;;;;;;14.90;11.80;;;;;;;12.18;79.24;98594.45;1721104;83;27445;-87
2022/10/07 01:09:31;;;;;;;19.52;13.43;;;;;;;12.15;79.16;98585.35;1721228;83;25769;-87
2022/10/07 01:12:14;;;;;;;19.23;13.60;;;;;;;12.12;79.02;98588.44;1721357;83;25805;-87
2022/10/07 01:15:02;;;;;;;20.62;12.80;;;;;;;12.07;78.94;98588.20;1721442;83;27499;-88
2022/10/07 01:17:58;;;;;;;20.10;11.93;;;;;;;12.03;78.88;98585.53;1721278;83;25711;-87
2022/10/07 01:20:47;;;;;;;17.62;12.10;;;;;;;11.99;78.86;98586.94;1721527;83;27548;-87
2022/10/07 01:23:40;;;;;;;15.90;10.25;;;;;;;11.90;78.81;98584.36;1721114;83;26175;-87
2022/10/07 01:26:46;;;;;;;11.35;9.03;;;;;;;11.86;78.81;98579.00;1706536;83;25770;-87
2022/10/07 01:29:33;;;;;;;11.97;10.05;;;;;;;11.80;78.72;98578.42;1721316;83;25820;-87
2022/10/07 01:32:12;;;;;;;15.50;11.25;;;;;;;11.67;78.78;98572.83;1688967;84;26611;-87
2022/10/07 01:34:42;;;;;;;17.40;10.13;;;;;;;11.65;78.86;98577.58;1723713;83;27353;-86
2022/10/07 01:37:13;;;;;;;13.65;10.28;;;;;;;11.60;78.74;98574.59;1723679;83;25331;-87
2022/10/07 01:39:48;;;;;;;13.43;9.20;;;;;;;11.55;78.73;98570.28;1723739;83;26624;-86
2022/10/07 01:42:15;;;;;;;15.83;10.80;;;;;;;11.51;78.73;98568.47;1723856;83;26535;-87
2022/10/07 01:44:47;;;;;;;15.98;10.68;;;;;;;11.46;78.65;98569.56;1723657;83;25580;-87
2022/10/07 01:47:14;;;;;;;15.35;11.75;;;;;;;11.44;78.62;98570.77;1723857;81;27399;-87
2022/10/07 01:49:41;;;;;;;13.75;10.68;;;;;;;11.37;78.52;98576.59;1723479;83;26305;-87
2022/10/07 01:52:19;;;;;;;12.58;9.50;;;;;;;11.32;78.65;98572.28;1723787;83;26512;-87
2022/10/07 01:55:16;;;;;;;15.93;9.95;;;;;;;11.31;78.66;98574.66;1723780;83;25850;-87
2022/10/07 01:58:09;;;;;;;12.98;9.20;;;;;;;11.27;78.66;98569.28;1723808;83;25846;-87
2022/10/07 02:00:42;;;;;;;21.77;9.93;;;;;;;11.24;78.76;98560.19;1723890;82;27368;-87
2022/10/07 02:03:41;;;;;;;14.68;9.90;;;;;;;11.23;78.78;98559.89;1723940;83;25994;-87
2022/10/07 02:06:28;;;;;;;12.90;9.48;;;;;;;11.22;78.78;98556.35;1723082;83;25765;-86
2022/10/07 02:08:56;;;;;;;17.85;10.85;;;;;;;11.17;78.75;98556.91;1753185;81;25712;-87
2022/10/07 02:11:27;;;;;;;15.98;11.35;;;;;;;11.12;78.76;98548.50;1730311;81;25766;-86
2022/10/07 02:14:01;;;;;;;17.00;10.90;;;;;;;11.08;78.82;98553.14;1757641;81;27359;-87
2022/10/07 02:16:51;;;;;;;17.50;10.88;;;;;;;11.05;78.86;98551.64;1756195;81;25688;-87
2022/10/07 02:19:25;;;;;;;15.35;9.63;;;;;;;11.04;78.85;98544.55;1756827;81;25262;-87
2022/10/07 02:21:56;;;;;;;13.78;9.55;;;;;;;10.92;78.68;98539.30;1753496;81;26470;-87
2022/10/07 02:24:26;;;;;;;11.73;9.15;;;;;;;10.83;78.74;98539.91;1757627;81;26457;-86
2022/10/07 02:26:56;;;;;;;15.58;9.40;;;;;;;10.81;78.96;98539.75;1757637;81;28155;-86
2022/10/07 02:29:26;;;;;;;20.62;11.88;;;;;;;10.76;78.84;98542.16;1757404;81;25702;-86
2022/10/07 02:31:57;;;;;;;15.50;11.50;;;;;;;10.70;78.98;98530.77;1757591;81;25723;-86
2022/10/07 02:34:27;;;;;;;17.62;11.53;;;;;;;10.71;78.95;98532.44;1757617;81;25775;-87
2022/10/07 02:37:02;;;;;;;16.10;10.43;;;;;;;10.65;78.78;98539.91;1757662;81;25269;-86
2022/10/07 02:39:29;;;;;;;17.15;10.53;;;;;;;10.60;78.85;98538.30;1757331;81;28472;-86
2022/10/07 02:42:12;;;;;;;13.22;9.60;;;;;;;10.59;78.83;98542.02;1757486;81;25763;-86
2022/10/07 02:45:08;;;;;;;14.85;10.15;;;;;;;10.55;78.69;98544.23;1756918;81;25792;-86
2022/10/07 02:47:52;;;;;;;18.92;10.15;;;;;;;10.54;78.77;98548.47;1756940;81;25760;-85
2022/10/07 02:50:23;;;;;;;14.80;10.00;;;;;;;10.49;78.58;98540.09;1757412;81;25801;-86
2022/10/07 02:52:53;;;;;;;14.05;9.40;;;;;;;10.42;78.59;98540.81;1757842;81;28250;-85
2022/10/07 02:55:24;;;;;;;16.90;9.28;;;;;;;10.42;78.59;98541.32;1757546;81;25846;-86
2022/10/07 02:57:56;;;;;;;15.00;9.55;;;;;;;10.39;78.53;98545.22;1757680;81;25719;-88
2022/10/07 03:00:22;;;;;;;14.40;9.93;;;;;;;10.32;78.31;98537.53;1757993;81;26327;-86
2022/10/07 03:02:57;;;;;;;16.95;10.95;;;;;;;10.21;78.39;98535.27;1757712;81;25986;-86
2022/10/07 03:05:25;;;;;;;19.02;11.97;;;;;;;10.14;78.45;98542.39;1757660;81;28181;-88
2022/10/07 03:08:04;;;;;;;19.05;11.95;;;;;;;10.07;78.51;98531.98;1757742;81;26360;-87
2022/10/07 03:10:31;;;;;;;21.45;13.93;;;;;;;10.05;78.60;98528.62;1757694;81;25794;-87
2022/10/07 03:12:58;;;;;;;20.30;12.73;;;;;;;10.03;78.62;98532.00;1757437;81;25792;-86
2022/10/07 03:15:24;;;;;;;21.90;14.23;;;;;;;10.02;78.51;98531.70;1757619;81;25689;-86
2022/10/07 03:17:51;;;;;;;20.92;13.78;;;;;;;10.00;78.45;98532.38;1757659;81;27343;-87
2022/10/07 03:20:17;;;;;;;12.85;9.78;;;;;;;10.00;78.62;98529.69;1757472;81;25769;-87
2022/10/07 03:22:44;;;;;;;14.80;9.53;;;;;;;9.91;78.39;98532.94;1757702;81;26460;-86
2022/10/07 03:25:12;;;;;;;14.20;9.93;;;;;;;9.79;78.29;98526.78;1757550;81;26343;-87
2022/10/07 03:27:39;;;;;;;13.78;10.13;;;;;;;9.71;78.54;98525.83;1757599;81;25286;-86
2022/10/07 03:30:08;;;;;;;13.40;10.40;;;;;;;9.68;78.70;98519.44;1757557;81;27352;-87
2022/10/07 03:32:35;;;;;;;11.93;10.23;;;;;;;9.70;78.83;98526.02;1757435;81;25778;-86
2022/10/07 03:35:01;;;;;;;16.60;10.15;;;;;;;9.69;78.92;98527.86;1757581;81;25725;-87
2022/10/07 03:37:29;;;;;;;17.73;9.83;;;;;;;9.70;78.95;98516.06;1757599;81;25688;-87
2022/10/07 03:39:56;;;;;;;13.85;10.53;;;;;;;9.72;79.07;98516.73;1757574;81;25807;-87
2022/10/07 03:42:23;;;;;;;16.10;10.08;;;;;;;9.75;79.13;98519.59;1757610;81;27529;-87
2022/10/07 03:44:49;;;;;;;14.43;11.12;;;;;;;9.78;79.22;98525.14;1757474;81;25735;-87
2022/10/07 03:47:16;;;;;;;19.75;13.98;;;;;;;9.81;79.27;98523.41;1757574;81;25680;-87
2022/10/07 03:49:44;;;;;;;19.25;12.05;;;;;;;9.83;79.39;98528.11;1729028;81;25771;-87
2022/10/07 03:52:11;;;;;;;21.50;13.58;;;;;;;9.86;79.46;98521.02;1722461;82;25672;-88
2022/10/07 03:54:37;;;;;;;32.13;13.80;;;;;;;9.89;79.49;98522.02;1722383;83;27971;-87
2022/10/07 03:57:48;;;;;;;22.32;13.10;;;;;;;9.91;79.66;98518.61;1722252;83;25876;-87
2022/10/07 03:59:35;;;;;;;29.40;13.93;;;;;;;9.93;79.70;98516.58;1718723;83;25681;-88
2022/10/07 04:02:02;;;;;;;35.80;15.72;;;;;;;9.90;79.65;98522.35;1722380;83;25757;-88
2022/10/07 04:04:28;;;;;;;40.23;15.98;;;;;;;9.82;79.71;98523.73;1722503;82;25766;-86
2022/10/07 04:06:55;;;;;;;39.83;15.88;;;;;;;9.77;79.93;98519.41;1722330;83;28599;-87
2022/10/07 04:09:21;;;;;;;39.65;17.75;;;;;;;9.73;80.13;98519.77;1722013;82;25733;-87
2022/10/07 04:11:48;;;;;;;38.83;17.77;;;;;;;9.74;80.39;98513.35;1722474;83;25673;-87
2022/10/07 04:14:15;;;;;;;41.77;20.72;;;;;;;9.79;80.57;98510.61;1722365;83;25740;-87
2022/10/07 04:16:42;;;;;;;53.02;19.57;;;;;;;9.80;80.68;98510.94;1722575;83;25673;-86
2022/10/07 04:19:08;;;;;;;38.25;18.10;;;;;;;9.82;80.75;98508.91;1722440;82;27355;-87
2022/10/07 04:21:35;;;;;;;32.45;17.27;;;;;;;9.87;80.82;98510.06;1722395;83;25687;-86
2022/10/07 04:24:02;;;;;;;33.10;17.98;;;;;;;9.91;80.82;98502.42;1722488;83;26302;-87
2022/10/07 04:26:28;;;;;;;36.20;17.42;;;;;;;9.95;80.79;98503.75;1722544;82;26329;-87
2022/10/07 04:28:55;;;;;;;30.43;17.07;;;;;;;9.99;80.75;98503.73;1722617;82;25736;-86
2022/10/07 04:31:21;;;;;;;30.95;17.35;;;;;;;10.00;80.72;98504.06;1722475;82;27416;-86
2022/10/07 04:33:50;;;;;;;30.55;19.27;;;;;;;10.02;80.78;98506.08;1722402;82;26017;-86
2022/10/07 04:36:16;;;;;;;36.13;20.00;;;;;;;10.02;80.80;98510.13;1722591;82;26429;-86
2022/10/07 04:38:45;;;;;;;35.63;19.55;;;;;;;10.03;80.89;98507.72;1722601;82;25750;-86
2022/10/07 04:41:11;;;;;;;39.03;20.43;;;;;;;10.03;80.90;98509.07;1722438;82;25706;-86
2022/10/07 04:43:38;;;;;;;37.23;19.40;;;;;;;10.06;80.98;98508.72;1722514;82;27343;-87
2022/10/07 04:46:15;;;;;;;47.95;23.62;;;;;;;10.04;81.12;98505.36;1722488;83;25896;-86
2022/10/07 04:48:44;;;;;;;49.80;22.52;;;;;;;10.01;81.20;98511.98;1722022;81;25246;-86
2022/10/07 04:51:11;;;;;;;49.13;23.18;;;;;;;10.02;81.25;98507.42;1722405;82;26362;-87
2022/10/07 04:53:40;;;;;;;44.38;23.77;;;;;;;10.03;81.32;98507.22;1722166;83;43428;-86
2022/10/07 04:56:07;;;;;;;46.05;24.10;;;;;;;10.04;81.42;98504.01;1722509;82;27414;-86
2022/10/07 04:58:35;;;;;;;42.83;24.27;;;;;;;10.06;81.43;98508.72;1722361;83;25674;-87
2022/10/07 05:01:07;;;;;;;38.63;19.90;;;;;;;10.05;81.42;98502.98;1722439;82;25712;-87
2022/10/07 05:03:37;;;;;;;38.48;18.70;;;;;;;10.04;81.45;98505.36;1722669;83;25872;-86
2022/10/07 05:06:04;;;;;;;30.15;17.07;;;;;;;9.99;81.49;98503.22;1722442;83;25685;-87
2022/10/07 05:08:31;;;;;;;45.33;17.32;;;;;;;9.95;81.50;98496.50;1722599;82;28161;-87
2022/10/07 05:11:00;;;;;;;30.30;17.75;;;;;;;9.90;81.53;98495.38;1722204;83;25790;-87
2022/10/07 05:13:27;;;;;;;38.90;17.20;;;;;;;9.86;81.64;98505.69;1722381;83;25775;-88
2022/10/07 05:15:58;;;;;;;32.48;17.67;;;;;;;9.81;81.68;98495.93;1722337;82;25807;-86
2022/10/07 05:18:27;;;;;;;35.17;16.05;;;;;;;9.79;81.79;98498.47;1722077;82;25981;-88
2022/10/07 05:20:54;;;;;;;25.70;15.43;;;;;;;9.79;81.89;98497.13;1722325;83;28293;-88
2022/10/07 05:23:24;;;;;;;26.05;16.67;;;;;;;9.82;81.94;98492.73;1722252;83;25731;-88
2022/10/07 05:26:00;;;;;;;27.80;16.93;;;;;;;9.83;82.01;98497.94;1722395;83;25750;-89
2022/10/07 05:28:27;;;;;;;22.95;16.10;;;;;;;9.84;82.03;98498.28;1722346;83;25768;-88
2022/10/07 05:31:06;;;;;;;37.10;16.87;;;;;;;9.87;82.04;98498.43;1722296;83;25900;-88
2022/10/07 05:33:33;;;;;;;23.42;15.90;;;;;;;9.89;82.05;98497.75;1721766;83;27411;-87
2022/10/07 05:36:00;;;;;;;23.40;15.70;;;;;;;9.92;82.10;98501.41;1722105;83;25777;-87
2022/10/07 05:38:27;;;;;;;34.25;14.95;;;;;;;9.94;82.13;98497.52;1722202;83;25694;-88
2022/10/07 05:41:01;;;;;;;25.48;14.07;;;;;;;9.96;82.13;98504.08;1722331;83;25747;-87
2022/10/07 05:43:30;;;;;;;27.27;14.03;;;;;;;9.99;82.15;98499.69;1721291;83;26020;-87
2022/10/07 05:46:04;;;;;;;29.67;15.23;;;;;;;10.01;82.16;98499.00;1697468;83;28284;-87
2022/10/07 05:48:32;;;;;;;23.32;15.60;;;;;;;10.01;82.17;98495.80;1722660;82;25714;-87
2022/10/07 05:50:59;;;;;;;27.17;15.83;;;;;;;10.05;82.28;98500.30;1736725;82;25725;-88
2022/10/07 05:53:28;;;;;;;22.90;16.23;;;;;;;10.08;82.18;98499.43;1736964;82;25754;-88
2022/10/07 05:55:55;;;;;;;21.05;16.20;;;;;;;10.10;82.09;98501.95;1736913;82;26371;-88
2022/10/07 05:58:22;;;;;;;24.23;15.45;;;;;;;10.09;82.01;98502.97;1736737;82;26912;-88
2022/10/07 06:00:56;;;;;;;23.15;15.48;;;;;;;10.11;82.05;98500.93;1736727;82;25825;-88
2022/10/07 06:03:29;;;;;;;23.05;15.55;;;;;;;10.11;82.05;98506.33;1737028;82;25777;-89
2022/10/07 06:05:53;;;;;;;25.00;16.45;;;;;;;10.12;82.05;98509.36;1735110;82;25868;-89
2022/10/07 06:08:22;;;;;;;27.35;18.32;;;;;;;10.13;82.16;98506.98;1737229;81;25764;-89
2022/10/07 06:13:35;;;;;;;22.85;15.03;;;;;;;10.12;82.16;98499.91;1736756;82;25833;-89
2022/10/07 06:16:05;;;;;;;29.02;15.60;;;;;;;10.14;82.01;98505.97;1737076;82;25773;-88
2022/10/07 06:18:34;;;;;;;29.30;15.32;;;;;;;10.12;82.03;98505.31;1737139;82;26471;-87
2022/10/07 06:21:01;;;;;;;35.30;15.20;;;;;;;10.14;82.12;98508.67;1737084;82;25705;-89
2022/10/07 06:23:29;;;;;;;24.18;16.82;;;;;;;10.16;82.06;98505.25;1737122;81;28190;-88
2022/10/07 06:25:58;;;;;;;26.52;16.95;;;;;;;10.18;82.04;98506.42;1737214;82;26510;-88
2022/10/07 06:28:26;;;;;;;21.55;16.65;;;;;;;10.20;82.07;98510.66;1737116;82;25720;-87
2022/10/07 06:30:54;;;;;;;21.05;17.15;;;;;;;10.18;82.09;98514.04;1737138;82;26403;-88
2022/10/07 06:33:21;;;;;;;25.32;17.55;;;;;;;10.19;82.13;98514.37;1737339;82;25774;-89
2022/10/07 06:35:47;;;;;;;21.95;16.40;;;;;;;10.24;82.16;98513.33;1737402;82;27525;-89
2022/10/07 06:38:14;;;;;;;26.55;18.80;;;;;;;10.27;82.19;98511.59;1737171;82;25754;-88
2022/10/07 06:40:41;;;;;;;31.37;21.17;;;;;;;10.28;82.11;98507.87;1737256;81;25289;-88
2022/10/07 06:43:08;;;;;;;30.15;22.15;;;;;;;10.33;82.15;98504.12;1737155;82;25824;-89
2022/10/07 06:45:35;;;;;;;29.35;21.90;;;;;;;10.38;82.15;98502.24;1737200;82;25875;-89
2022/10/07 06:48:02;;;;;;;30.88;22.22;;;;;;;10.45;82.17;98501.82;1737158;82;28062;-89
2022/10/07 06:50:28;;;;;;;30.92;23.45;;;;;;;10.51;82.21;98498.88;1738071;81;25673;-89
2022/10/07 06:52:55;;;;;;;29.00;21.42;;;;;;;10.56;82.14;98497.31;1739058;82;26133;-89
2022/10/07 06:55:21;;;;;;;30.23;22.00;;;;;;;10.57;82.09;98495.45;1738885;82;25685;-89
2022/10/07 06:57:48;;;;;;;28.98;21.97;;;;;;;10.62;82.02;98494.41;1739013;82;26206;-88
2022/10/07 07:00:15;;;;;;;35.63;23.35;;;;;;;10.66;82.07;98495.69;1738976;82;26764;-89
2022/10/07 07:02:42;;;;;;;32.88;24.02;;;;;;;10.72;82.08;98488.22;1738648;82;25856;-89
2022/10/07 07:05:12;;;;;;;31.17;21.65;;;;;;;10.79;82.10;98490.48;1738945;82;25745;-89
2022/10/07 07:07:39;;;;;;;30.65;22.02;;;;;;;10.82;82.03;98487.41;1738630;82;25737;-88
2022/10/07 07:10:07;;;;;;;34.00;21.10;;;;;;;10.93;81.98;98486.95;1738846;82;25647;-89
2022/10/07 07:12:34;;;;;;;28.23;19.87;;;;;;;11.09;81.91;98489.45;1738946;82;27101;-88
2022/10/07 07:15:00;;;;;;;29.10;18.73;;;;;;;11.22;81.64;98493.35;1738849;82;25688;-88
2022/10/07 07:17:27;;;;;;;28.50;19.75;;;;;;;11.32;81.54;98485.27;1738948;82;25806;-89
2022/10/07 07:19:55;;;;;;;28.75;19.17;;;;;;;11.46;81.45;98479.50;1739024;82;25698;-89
2022/10/07 07:22:21;;;;;;;29.40;19.65;;;;;;;11.52;81.17;98479.56;1739058;82;25821;-88
2022/10/07 07:24:48;;;;;;;28.10;18.30;;;;;;;11.60;80.99;98481.30;1738874;82;27337;-89
2022/10/07 07:27:15;;;;;;;32.78;20.43;;;;;;;11.81;81.08;98477.31;1739035;82;26195;-90
2022/10/07 07:29:41;;;;;;;29.60;19.57;;;;;;;12.04;80.88;98472.20;1738943;82;25745;-89
2022/10/07 07:32:08;;;;;;;23.38;18.25;;;;;;;12.27;80.87;98474.17;1738877;82;25659;-89
2022/10/07 07:34:36;;;;;;;26.70;15.70;;;;;;;12.56;80.75;98473.95;1739067;82;25869;-88
2022/10/07 07:37:03;;;;;;;20.90;14.15;;;;;;;12.83;80.48;98468.19;1738854;82;27575;-88
2022/10/07 07:39:30;;;;;;;18.73;14.53;;;;;;;13.10;80.12;98467.81;1738793;82;25871;-85
2022/10/07 07:41:56;;;;;;;23.42;14.58;;;;;;;13.39;79.98;98463.17;1738955;82;25701;-86
2022/10/07 07:44:23;;;;;;;19.37;13.93;;;;;;;13.68;79.57;98465.01;1738982;82;25750;-85
2022/10/07 07:46:51;;;;;;;23.45;15.23;;;;;;;13.98;79.19;98468.73;1738914;82;25658;-86
2022/10/07 07:49:19;;;;;;;19.17;13.90;;;;;;;14.27;78.66;98460.68;1738727;81;27378;-86
2022/10/07 07:51:46;;;;;;;21.37;15.45;;;;;;;14.55;78.23;98449.09;1738450;82;25763;-87
2022/10/07 07:54:13;;;;;;;17.62;14.07;;;;;;;14.86;77.83;98451.64;1738903;82;25756;-86
2022/10/07 07:56:40;;;;;;;17.48;13.00;;;;;;;15.21;77.46;98447.57;1738838;82;25676;-87
2022/10/07 07:59:07;;;;;;;20.65;13.65;;;;;;;15.53;77.09;98436.20;1738957;82;25823;-87
2022/10/07 08:01:34;;;;;;;15.15;12.58;;;;;;;15.86;76.67;98434.66;1738668;82;28235;-86
2022/10/07 08:04:03;;;;;;;16.93;11.83;;;;;;;16.13;76.25;98437.50;1738834;82;26478;-87
2022/10/07 08:06:30;;;;;;;15.03;11.75;;;;;;;16.46;75.98;98436.38;1738872;82;25883;-86
2022/10/07 08:08:58;;;;;;;15.05;11.50;;;;;;;16.74;75.59;98431.31;1738916;82;26479;-86
2022/10/07 08:11:25;;;;;;;14.18;11.10;;;;;;;17.01;75.37;98428.30;1738886;82;25729;-86
2022/10/07 08:13:52;;;;;;;11.15;9.95;;;;;;;17.30;75.15;98430.22;1738975;82;27378;-87
2022/10/07 08:16:22;;;;;;;11.73;10.53;;;;;;;17.53;74.64;98424.88;1738868;82;25465;-87
2022/10/07 08:18:50;;;;;;;12.58;11.15;;;;;;;17.73;74.11;98425.17;1738860;82;25824;-87
2022/10/07 08:21:21;;;;;;;13.75;10.75;;;;;;;17.93;73.72;98422.97;1738910;82;26466;-87
2022/10/07 08:23:57;;;;;;;13.72;11.40;;;;;;;18.11;73.18;98422.06;1738979;82;25765;-87
2022/10/07 08:26:29;;;;;;;11.15;9.95;;;;;;;18.25;72.57;98424.86;1738950;82;27383;-87
2022/10/07 08:28:56;;;;;;;14.93;9.70;;;;;;;18.39;72.02;98414.00;1738949;82;25985;-86
2022/10/07 08:31:27;;;;;;;18.67;9.60;;;;;;;18.57;72.19;98407.59;1738719;82;25729;-86
2022/10/07 08:33:58;;;;;;;9.93;9.00;;;;;;;18.72;70.82;98405.79;1738875;82;25697;-86
2022/10/07 08:36:28;;;;;;;12.35;10.00;;;;;;;18.73;70.91;98400.58;1738963;82;25674;-87
2022/10/07 08:38:55;;;;;;;11.43;9.40;;;;;;;18.91;70.98;98394.98;1738821;82;28264;-86
2022/10/07 08:41:54;;;;;;;10.23;9.20;;;;;;;18.98;70.28;98389.66;1715560;82;25727;-86
2022/10/07 08:44:26;;;;;;;10.48;9.38;;;;;;;19.12;70.51;98397.61;1738646;82;25697;-87
2022/10/07 08:47:17;;;;;;;10.63;9.60;;;;;;;19.19;69.60;98390.11;1739065;82;25673;-87
2022/10/07 08:50:23;;;;;;;12.03;9.50;;;;;;;19.23;69.32;98387.16;1738585;81;25752;-86
2022/10/07 08:52:58;;;;;;;10.48;9.38;;;;;;;19.30;69.19;98385.13;1736786;82;27450;-86
2022/10/07 08:55:51;;;;;;;10.00;8.90;;;;;;;19.62;69.39;98380.84;1736932;82;26313;-86
2022/10/07 08:58:24;;;;;;;;;;;;;;;19.93;69.15;98380.01;1739388;81;25745;-87
2022/10/07 09:01:14;;;;;;;;;;;;;;;20.33;67.12;98373.83;1739723;81;25698;-88
2022/10/07 09:03:52;;;;;;;11.45;9.65;;;;;;;20.51;66.30;98376.06;1737070;82;25758;-86
2022/10/07 09:06:33;;;;;;;9.58;8.53;;;;;;;20.63;66.98;98339.75;1735271;82;28064;-87
2022/10/07 09:09:16;;;;;;;9.48;8.00;;;;;;;21.02;66.42;98364.68;1698792;82;25320;-85
2022/10/07 09:11:46;;;;;;;8.35;7.55;;;;;;;21.37;65.62;98362.96;1737069;81;25801;-87
2022/10/07 09:14:29;;;;;;;10.60;7.97;;;;;;;21.37;65.62;98362.96;1736996;82;25737;-86
2022/10/07 09:17:10;;;;;;;12.63;8.40;;;;;;;21.39;64.37;98358.55;1737027;82;25771;-87
2022/10/07 09:19:44;;;;;;;8.68;7.78;;;;;;;21.50;64.38;98357.58;1736557;82;27382;-88
2022/10/07 09:22:16;;;;;;;9.30;8.08;;;;;;;21.61;64.06;98359.38;1737072;82;26411;-88
2022/10/07 09:24:45;;;;;;;9.80;7.78;;;;;;;21.66;63.29;98351.70;1737361;81;25694;-87
2022/10/07 09:27:15;;;;;;;17.37;8.73;;;;;;;21.72;63.32;98343.27;1736961;81;25741;-86
2022/10/07 09:29:44;;;;;;;9.55;8.18;;;;;;;21.80;62.67;98340.58;1736875;82;25956;-87
2022/10/07 09:32:17;;;;;;;12.18;7.78;;;;;;;21.77;62.29;98343.30;1736976;82;27366;-87
2022/10/07 09:34:45;;;;;;;13.18;8.05;;;;;;;21.83;62.38;98335.40;1736997;82;25697;-87
2022/10/07 09:37:19;;;;;;;10.53;8.75;;;;;;;21.87;61.17;98334.31;1737052;82;26392;-87
2022/10/07 09:39:50;;;;;;;8.78;7.55;;;;;;;21.85;61.67;98330.47;1737336;82;25727;-87
2022/10/07 09:42:41;;;;;;;8.73;7.83;;;;;;;21.93;61.26;98331.91;1737096;82;25706;-87
2022/10/07 09:45:26;;;;;;;7.78;6.72;;;;;;;21.93;60.99;98327.23;1737084;81;27392;-87
2022/10/07 09:47:57;;;;;;;7.83;7.00;;;;;;;22.01;61.03;98320.45;1737275;81;25888;-87
2022/10/07 09:50:32;;;;;;;10.08;7.40;;;;;;;22.17;60.44;98311.77;1736912;81;25977;-87
2022/10/07 09:53:01;;;;;;;10.08;7.40;;;;;;;22.23;59.89;98312.08;1736813;81;25647;-88
2022/10/07 09:55:42;;;;;;;9.00;7.60;;;;;;;22.27;60.19;98307.72;1737069;82;25739;-87
2022/10/07 09:58:27;;;;;;;9.30;7.12;;;;;;;22.37;60.08;98307.78;1736712;82;27502;-88
2022/10/07 10:01:00;;;;;;;8.90;6.90;;;;;;;22.37;59.58;98302.28;1736811;82;25298;-88
2022/10/07 10:03:32;;;;;;;9.38;6.67;;;;;;;22.45;59.50;98299.05;1737121;82;25319;-87
2022/10/07 10:06:07;;;;;;;10.32;7.47;;;;;;;22.51;59.62;98291.09;1737299;82;25889;-88
2022/10/07 10:08:44;;;;;;;12.93;8.50;;;;;;;22.62;59.61;98292.80;1737207;81;25782;-88
2022/10/07 10:11:29;;;;;;;9.88;7.30;;;;;;;22.71;59.15;98292.27;1737043;82;27374;-88
2022/10/07 10:13:56;;;;;;;8.25;6.40;;;;;;;22.75;58.57;98290.11;1737018;81;25681;-88
2022/10/07 10:16:36;;;;;;;8.93;7.00;;;;;;;22.80;58.51;98286.59;1737102;82;25735;-89
2022/10/07 10:19:25;;;;;;;8.50;6.28;;;;;;;22.87;58.25;98282.48;1737300;82;26376;-87
2022/10/07 10:21:56;;;;;;;7.83;7.08;;;;;;;22.88;57.97;98279.19;1737206;82;26306;-87
2022/10/07 10:27:23;;;;;;;7.33;6.60;;;;;;;22.91;57.53;98263.52;1736918;82;25757;-88
2022/10/07 10:29:58;;;;;;;9.63;7.03;;;;;;;22.86;57.29;98260.73;1737119;81;25874;-88
2022/10/07 10:32:54;;;;;;;7.28;5.55;;;;;;;22.91;57.05;98255.25;1737017;81;25786;-91
2022/10/07 10:35:50;;;;;;;6.75;5.87;;;;;;;22.89;56.57;98243.67;1736875;82;25408;-88
2022/10/07 10:38:28;;;;;;;7.28;6.50;;;;;;;22.93;56.57;98242.88;1737075;82;27426;-88
2022/10/07 10:41:31;;;;;;;6.60;5.47;;;;;;;22.93;56.49;98242.05;1736515;82;25907;-89
2022/10/07 10:44:48;;;;;;;8.55;5.92;;;;;;;22.95;54.91;98237.08;1737517;82;25806;-89
2022/10/07 10:47:38;;;;;;;6.58;5.00;;;;;;;22.97;56.20;98226.63;1738012;81;25701;-88
2022/10/07 10:50:18;;;;;;;9.63;5.70;;;;;;;23.09;56.11;98227.20;1736701;82;25794;-90
2022/10/07 10:52:50;;;;;;;7.37;5.45;;;;;;;23.15;55.81;98226.68;1737016;82;27413;-88
2022/10/07 10:55:26;;;;;;;;;;;;;;;23.20;55.32;98215.11;1739756;81;25737;-89
2022/10/07 10:58:23;;;;;;;9.53;5.30;;;;;;;23.27;54.01;98212.93;1737337;82;25671;-89
2022/10/07 11:01:16;;;;;;;5.30;4.65;;;;;;;23.30;54.97;98209.63;1737156;82;25758;-89
2022/10/07 11:04:08;;;;;;;5.15;3.92;;;;;;;23.35;54.70;98215.13;1737283;82;25639;-90
2022/10/07 11:06:37;;;;;;;9.43;3.92;;;;;;;23.44;54.30;98196.12;1737385;82;27453;-87
2022/10/07 11:09:08;;;;;;;4.90;3.60;;;;;;;23.47;53.84;98191.45;1737186;82;25699;-88
2022/10/07 11:11:35;;;;;;;6.92;3.80;;;;;;;23.48;53.45;98194.48;1737200;82;25912;-89
2022/10/07 11:14:16;;;;;;;4.72;4.20;;;;;;;23.50;53.47;98188.17;1736747;82;26374;-89
2022/10/07 11:16:57;;;;;;;8.35;4.67;;;;;;;23.57;53.32;98186.50;1736936;81;26050;-90
2022/10/07 11:19:29;;;;;;;6.08;4.45;;;;;;;23.62;53.35;98179.63;1737121;82;28205;-90
2022/10/07 11:22:01;;;;;;;4.85;4.10;;;;;;;23.66;53.14;98171.92;1736218;82;25694;-89
2022/10/07 11:24:55;;;;;;;;;;;;;;;23.68;53.10;98171.61;1739762;82;25730;-88
2022/10/07 11:27:28;;;;;;;4.50;3.72;;;;;;;23.70;51.47;98167.48;1735514;82;25904;-89
2022/10/07 11:30:18;;;;;;;4.08;2.98;;;;;;;23.70;52.66;98163.90;1735631;82;25832;-89
2022/10/07 11:33:12;;;;;;;3.98;3.60;;;;;;;23.74;52.27;98156.73;1737045;81;27355;-90
2022/10/07 11:35:50;;;;;;;6.72;4.25;;;;;;;23.81;52.04;98147.62;1736883;82;25875;-89
2022/10/07 11:38:20;;;;;;;6.30;4.08;;;;;;;23.91;51.71;98145.41;1736928;81;25267;-89
2022/10/07 11:40:51;;;;;;;3.90;3.52;;;;;;;24.11;52.04;98147.28;1737006;82;25780;-89
2022/10/07 11:43:38;;;;;;;3.12;2.80;;;;;;;24.40;51.37;98146.91;1737104;82;26031;-89
2022/10/07 11:46:19;;;;;;;6.58;3.83;;;;;;;24.58;50.64;98139.38;1735850;82;27255;-90
2022/10/07 11:49:03;;;;;;;9.08;3.80;;;;;;;24.66;50.32;98139.33;1737623;81;25561;-91
2022/10/07 11:51:55;;;;;;;4.15;3.75;;;;;;;24.71;49.62;98133.80;1737654;81;25799;-89
2022/10/07 11:54:30;;;;;;;5.83;3.83;;;;;;;24.66;49.83;98124.15;1739087;82;25747;-90
2022/10/07 11:56:58;;;;;;;6.28;3.55;;;;;;;24.63;49.73;98127.50;1738009;82;25742;-91